LGX37B ENHD-EGPB
Flight info
| Callsign | LGX37B |
|---|---|
| Flight time | 0h 37m |
| Altitude | 30000 |
| Route | GENVU DCT TOBUR DCT ORVIK DCT EVTEP DCT SBH |
| Aircraft | B38M/M-SDE1FGHILORVWXY/HB1 |
Departure
| Time | 2026-04-20 16:46 |
|---|---|
| Airport | Haugesund Airport, Karmøy (ENHD) |
Arrival
| Time | 2026-04-20 17:24 |
|---|---|
| Airport | Sumburgh Airport (EGPB) |
| Time | Latitude | Longitude | Altitude | Speed | Heading |
|---|---|---|---|---|---|
| 2026-04-20 16:33 | 59.34447 | 5.21553 | 87 ft | 0 kts | 44° |
| 2026-04-20 16:40 | 59.34442 | 5.21543 | 92 ft | 3 kts | 44° |
| 2026-04-20 16:40 | 59.34427 | 5.21504 | 87 ft | 4 kts | 76° |
| 2026-04-20 16:40 | 59.34428 | 5.21457 | 90 ft | 4 kts | 124° |
| 2026-04-20 16:40 | 59.34436 | 5.21438 | 87 ft | 1 kts | 140° |
| 2026-04-20 16:41 | 59.34437 | 5.21436 | 87 ft | 0 kts | 140° |
| 2026-04-20 16:43 | 59.34437 | 5.21437 | 87 ft | 1 kts | 140° |
| 2026-04-20 16:43 | 59.34391 | 5.21515 | 88 ft | 12 kts | 139° |
| 2026-04-20 16:43 | 59.34314 | 5.21691 | 87 ft | 19 kts | 129° |
| 2026-04-20 16:44 | 59.34224 | 5.21884 | 87 ft | 19 kts | 131° |
| 2026-04-20 16:44 | 59.34114 | 5.21829 | 89 ft | 19 kts | 222° |
| 2026-04-20 16:44 | 59.33987 | 5.21933 | 92 ft | 28 kts | 134° |
| 2026-04-20 16:44 | 59.33840 | 5.22258 | 97 ft | 32 kts | 131° |
| 2026-04-20 16:45 | 59.33747 | 5.22404 | 97 ft | 8 kts | 244° |
| 2026-04-20 16:45 | 59.33797 | 5.22298 | 96 ft | 24 kts | 315° |
| 2026-04-20 16:45 | 59.34095 | 5.21713 | 89 ft | 97 kts | 314° |
| 2026-04-20 16:45 | 59.34486 | 5.20940 | 86 ft | 138 kts | 315° |
| 2026-04-20 16:46 | 59.35189 | 5.19552 | 674 ft | 142 kts | 316° |
| 2026-04-20 16:46 | 59.35899 | 5.18226 | 1492 ft | 148 kts | 314° |
| 2026-04-20 16:46 | 59.36317 | 5.16291 | 2146 ft | 165 kts | 277° |
| 2026-04-20 16:46 | 59.36294 | 5.13927 | 2804 ft | 182 kts | 267° |
| 2026-04-20 16:47 | 59.36188 | 5.11344 | 3495 ft | 198 kts | 268° |
| 2026-04-20 16:47 | 59.36111 | 5.08546 | 4152 ft | 213 kts | 269° |
| 2026-04-20 16:47 | 59.36068 | 5.05526 | 4786 ft | 230 kts | 270° |
| 2026-04-20 16:47 | 59.36046 | 5.02289 | 5388 ft | 246 kts | 270° |
| 2026-04-20 16:48 | 59.36026 | 4.98866 | 6087 ft | 254 kts | 270° |
| 2026-04-20 16:48 | 59.36004 | 4.95361 | 6878 ft | 259 kts | 269° |
| 2026-04-20 16:48 | 59.35975 | 4.91808 | 7659 ft | 262 kts | 269° |
| 2026-04-20 16:48 | 59.35945 | 4.88198 | 8503 ft | 267 kts | 269° |
| 2026-04-20 16:49 | 59.35914 | 4.84488 | 9306 ft | 281 kts | 269° |
| 2026-04-20 16:49 | 59.35878 | 4.80609 | 10071 ft | 293 kts | 269° |
| 2026-04-20 16:49 | 59.35840 | 4.76560 | 10911 ft | 303 kts | 269° |
| 2026-04-20 16:49 | 59.35799 | 4.72306 | 11477 ft | 321 kts | 269° |
| 2026-04-20 16:50 | 59.35754 | 4.67812 | 12016 ft | 339 kts | 268° |
| 2026-04-20 16:50 | 59.35705 | 4.63052 | 12510 ft | 356 kts | 268° |
| 2026-04-20 16:50 | 59.35653 | 4.58079 | 12981 ft | 373 kts | 268° |
| 2026-04-20 16:50 | 59.35596 | 4.52937 | 13706 ft | 380 kts | 268° |
| 2026-04-20 16:51 | 59.35537 | 4.47735 | 14532 ft | 385 kts | 268° |
| 2026-04-20 16:51 | 59.35475 | 4.42459 | 15351 ft | 389 kts | 268° |
| 2026-04-20 16:51 | 59.35410 | 4.37125 | 16141 ft | 393 kts | 268° |
| 2026-04-20 16:51 | 59.35343 | 4.31817 | 16904 ft | 397 kts | 268° |
| 2026-04-20 16:52 | 59.35272 | 4.26394 | 17646 ft | 400 kts | 268° |
| 2026-04-20 16:52 | 59.35197 | 4.20849 | 18360 ft | 404 kts | 268° |
| 2026-04-20 16:52 | 59.35121 | 4.15401 | 19039 ft | 407 kts | 268° |
| 2026-04-20 16:52 | 59.35043 | 4.09836 | 19731 ft | 409 kts | 268° |
| 2026-04-20 16:53 | 59.34961 | 4.04234 | 20387 ft | 412 kts | 268° |
| 2026-04-20 16:53 | 59.34874 | 3.98601 | 21006 ft | 415 kts | 267° |
| 2026-04-20 16:53 | 59.34784 | 3.92929 | 21611 ft | 418 kts | 267° |
| 2026-04-20 16:53 | 59.34691 | 3.87222 | 22209 ft | 421 kts | 267° |
| 2026-04-20 16:54 | 59.34596 | 3.81458 | 22792 ft | 423 kts | 267° |
| 2026-04-20 16:54 | 59.34500 | 3.75685 | 23365 ft | 426 kts | 267° |
| 2026-04-20 16:54 | 59.34401 | 3.69867 | 23913 ft | 429 kts | 267° |
| 2026-04-20 16:54 | 59.34297 | 3.64004 | 24438 ft | 431 kts | 266° |
| 2026-04-20 16:55 | 59.34188 | 3.58111 | 24944 ft | 434 kts | 266° |
| 2026-04-20 16:55 | 59.34076 | 3.52171 | 25430 ft | 437 kts | 266° |
| 2026-04-20 16:55 | 59.33961 | 3.46199 | 25900 ft | 440 kts | 266° |
| 2026-04-20 16:55 | 59.33843 | 3.40187 | 26356 ft | 443 kts | 266° |
| 2026-04-20 16:56 | 59.33722 | 3.34127 | 26796 ft | 446 kts | 266° |
| 2026-04-20 16:56 | 59.33596 | 3.28040 | 27227 ft | 449 kts | 266° |
| 2026-04-20 16:56 | 59.33467 | 3.21908 | 27631 ft | 451 kts | 265° |
| 2026-04-20 16:56 | 59.33334 | 3.15753 | 28032 ft | 454 kts | 265° |
| 2026-04-20 16:57 | 59.33199 | 3.09632 | 28422 ft | 456 kts | 265° |
| 2026-04-20 16:57 | 59.33059 | 3.03405 | 28794 ft | 459 kts | 265° |
| 2026-04-20 16:57 | 59.32916 | 2.97153 | 29156 ft | 461 kts | 265° |
| 2026-04-20 16:57 | 59.33132 | 2.90869 | 29515 ft | 467 kts | 280° |
| 2026-04-20 16:58 | 59.33885 | 2.84674 | 29971 ft | 467 kts | 282° |
| 2026-04-20 16:58 | 59.34726 | 2.78541 | 30431 ft | 466 kts | 284° |
| 2026-04-20 16:58 | 59.36623 | 2.66243 | 30507 ft | 472 kts | 285° |
| 2026-04-20 16:59 | 59.38421 | 2.53973 | 30515 ft | 467 kts | 283° |
| 2026-04-20 16:59 | 59.40145 | 2.41645 | 30520 ft | 468 kts | 283° |
| 2026-04-20 17:00 | 59.42800 | 2.23156 | 30515 ft | 473 kts | 283° |
| 2026-04-20 17:01 | 59.44549 | 2.10703 | 30519 ft | 472 kts | 283° |
| 2026-04-20 17:01 | 59.46287 | 1.98253 | 30515 ft | 472 kts | 283° |
| 2026-04-20 17:02 | 59.48024 | 1.85751 | 30520 ft | 473 kts | 283° |
| 2026-04-20 17:02 | 59.49733 | 1.73338 | 30519 ft | 472 kts | 283° |
| 2026-04-20 17:03 | 59.51439 | 1.60831 | 30517 ft | 473 kts | 283° |
| 2026-04-20 17:03 | 59.53137 | 1.48306 | 30509 ft | 473 kts | 283° |
| 2026-04-20 17:04 | 59.54824 | 1.35760 | 30505 ft | 472 kts | 282° |
| 2026-04-20 17:04 | 59.56484 | 1.23286 | 30511 ft | 469 kts | 282° |
| 2026-04-20 17:05 | 59.58131 | 1.10829 | 30513 ft | 470 kts | 282° |
| 2026-04-20 17:05 | 59.59773 | 0.98300 | 30519 ft | 474 kts | 282° |
| 2026-04-20 17:06 | 59.61411 | 0.85701 | 30513 ft | 476 kts | 282° |
| 2026-04-20 17:06 | 59.63040 | 0.73051 | 30520 ft | 475 kts | 282° |
| 2026-04-20 17:07 | 59.64669 | 0.60378 | 30521 ft | 475 kts | 283° |
| 2026-04-20 17:07 | 59.66301 | 0.47877 | 30525 ft | 470 kts | 283° |
| 2026-04-20 17:08 | 59.67917 | 0.35319 | 29679 ft | 471 kts | 282° |
| 2026-04-20 17:08 | 59.68709 | 0.29091 | 28556 ft | 461 kts | 282° |
| 2026-04-20 17:08 | 59.69481 | 0.23007 | 27450 ft | 451 kts | 282° |
| 2026-04-20 17:08 | 59.70235 | 0.17054 | 26360 ft | 441 kts | 281° |
| 2026-04-20 17:09 | 59.70972 | 0.11221 | 25288 ft | 433 kts | 281° |
| 2026-04-20 17:09 | 59.71702 | 0.05392 | 24207 ft | 439 kts | 281° |
| 2026-04-20 17:09 | 59.72436 | -0.00507 | 23107 ft | 442 kts | 281° |
| 2026-04-20 17:09 | 59.73173 | -0.06438 | 21990 ft | 443 kts | 281° |
| 2026-04-20 17:10 | 59.73911 | -0.12376 | 20866 ft | 444 kts | 282° |
| 2026-04-20 17:10 | 59.74646 | -0.18335 | 19722 ft | 445 kts | 283° |
| 2026-04-20 17:10 | 59.75382 | -0.24307 | 18577 ft | 445 kts | 283° |
| 2026-04-20 17:10 | 59.76109 | -0.30231 | 17682 ft | 431 kts | 283° |
| 2026-04-20 17:11 | 59.76803 | -0.35928 | 16320 ft | 418 kts | 283° |
| 2026-04-20 17:11 | 59.77475 | -0.41463 | 14924 ft | 409 kts | 283° |
| 2026-04-20 17:11 | 59.78134 | -0.46899 | 13517 ft | 401 kts | 283° |
| 2026-04-20 17:11 | 59.78779 | -0.52236 | 12118 ft | 394 kts | 283° |
| 2026-04-20 17:12 | 59.79402 | -0.57417 | 10746 ft | 387 kts | 283° |
| 2026-04-20 17:12 | 59.80020 | -0.62601 | 9591 ft | 386 kts | 283° |
| 2026-04-20 17:12 | 59.80627 | -0.67672 | 9243 ft | 368 kts | 282° |
| 2026-04-20 17:12 | 59.81206 | -0.72508 | 8921 ft | 351 kts | 282° |
| 2026-04-20 17:13 | 59.81751 | -0.77123 | 8683 ft | 335 kts | 282° |
| 2026-04-20 17:13 | 59.82268 | -0.81541 | 8507 ft | 321 kts | 282° |
| 2026-04-20 17:13 | 59.82766 | -0.85769 | 8384 ft | 306 kts | 282° |
| 2026-04-20 17:13 | 59.82981 | -0.89861 | 8307 ft | 290 kts | 266° |
| 2026-04-20 17:14 | 59.82807 | -0.93779 | 8057 ft | 282 kts | 262° |
| 2026-04-20 17:14 | 59.82591 | -0.97642 | 7729 ft | 280 kts | 261° |
| 2026-04-20 17:14 | 59.82362 | -1.01470 | 7392 ft | 278 kts | 261° |
| 2026-04-20 17:14 | 59.82133 | -1.05270 | 7107 ft | 274 kts | 261° |
| 2026-04-20 17:15 | 59.81912 | -1.09026 | 7069 ft | 276 kts | 261° |
| 2026-04-20 17:15 | 59.81692 | -1.12798 | 7045 ft | 274 kts | 261° |
| 2026-04-20 17:15 | 59.81469 | -1.16589 | 7039 ft | 276 kts | 261° |
| 2026-04-20 17:15 | 59.81245 | -1.20382 | 7035 ft | 277 kts | 261° |
| 2026-04-20 17:16 | 59.81023 | -1.24124 | 7031 ft | 276 kts | 261° |
| 2026-04-20 17:16 | 59.80795 | -1.27919 | 7032 ft | 276 kts | 260° |
| 2026-04-20 17:16 | 59.80564 | -1.31712 | 7032 ft | 275 kts | 260° |
| 2026-04-20 17:16 | 59.80340 | -1.35436 | 7029 ft | 268 kts | 261° |
| 2026-04-20 17:17 | 59.80125 | -1.39037 | 7026 ft | 257 kts | 260° |
| 2026-04-20 17:17 | 59.79916 | -1.42520 | 7024 ft | 248 kts | 260° |
| 2026-04-20 17:17 | 59.79703 | -1.45967 | 6452 ft | 265 kts | 260° |
| 2026-04-20 17:17 | 59.79458 | -1.49769 | 5480 ft | 289 kts | 260° |
| 2026-04-20 17:18 | 59.79199 | -1.53869 | 4486 ft | 308 kts | 260° |
| 2026-04-20 17:18 | 59.78968 | -1.58218 | 3474 ft | 325 kts | 268° |
| 2026-04-20 17:18 | 59.79535 | -1.62612 | 2564 ft | 336 kts | 300° |
| 2026-04-20 17:18 | 59.81118 | -1.65787 | 2381 ft | 312 kts | 332° |
| 2026-04-20 17:19 | 59.83067 | -1.66830 | 2336 ft | 275 kts | 5° |
| 2026-04-20 17:19 | 59.84741 | -1.65764 | 2337 ft | 238 kts | 39° |
| 2026-04-20 17:19 | 59.85882 | -1.63547 | 2319 ft | 223 kts | 61° |
| 2026-04-20 17:19 | 59.86355 | -1.60786 | 2324 ft | 203 kts | 85° |
| 2026-04-20 17:20 | 59.86526 | -1.58047 | 2327 ft | 194 kts | 86° |
| 2026-04-20 17:20 | 59.86664 | -1.55513 | 2326 ft | 171 kts | 86° |
| 2026-04-20 17:20 | 59.86788 | -1.53276 | 2323 ft | 156 kts | 86° |
| 2026-04-20 17:20 | 59.86895 | -1.51217 | 2268 ft | 146 kts | 88° |
| 2026-04-20 17:21 | 59.86999 | -1.49273 | 2219 ft | 144 kts | 86° |
| 2026-04-20 17:21 | 59.87133 | -1.47363 | 2000 ft | 135 kts | 85° |
| 2026-04-20 17:21 | 59.87235 | -1.45497 | 1788 ft | 131 kts | 88° |
| 2026-04-20 17:21 | 59.87316 | -1.43635 | 1424 ft | 135 kts | 86° |
| 2026-04-20 17:22 | 59.87432 | -1.41804 | 1132 ft | 132 kts | 83° |
| 2026-04-20 17:22 | 59.87557 | -1.39996 | 953 ft | 132 kts | 84° |
| 2026-04-20 17:22 | 59.87664 | -1.38187 | 757 ft | 129 kts | 84° |
| 2026-04-20 17:22 | 59.87755 | -1.36384 | 589 ft | 127 kts | 87° |
| 2026-04-20 17:23 | 59.87831 | -1.34578 | 479 ft | 130 kts | 85° |
| 2026-04-20 17:23 | 59.87950 | -1.32784 | 324 ft | 133 kts | 83° |
| 2026-04-20 17:23 | 59.88066 | -1.30963 | 133 ft | 135 kts | 86° |
| 2026-04-20 17:23 | 59.88156 | -1.29232 | 44 ft | 102 kts | 84° |
| 2026-04-20 17:24 | 59.88199 | -1.28427 | 46 ft | 32 kts | 86° |
| 2026-04-20 17:24 | 59.88236 | -1.28132 | 46 ft | 11 kts | 109° |
| 2026-04-20 17:24 | 59.88223 | -1.28124 | 45 ft | 1 kts | 219° |
| 2026-04-20 17:24 | 59.88217 | -1.28258 | 46 ft | 18 kts | 265° |
| 2026-04-20 17:25 | 59.88199 | -1.28618 | 46 ft | 33 kts | 262° |
| 2026-04-20 17:25 | 59.88166 | -1.29086 | 45 ft | 19 kts | 262° |
| 2026-04-20 17:25 | 59.88160 | -1.29176 | 45 ft | 0 kts | 264° |
| 2026-04-20 17:25 | 59.88149 | -1.29192 | 44 ft | 8 kts | 200° |
| 2026-04-20 17:26 | 59.88063 | -1.29269 | 41 ft | 16 kts | 211° |
| 2026-04-20 17:26 | 59.87972 | -1.29393 | 40 ft | 16 kts | 220° |
| 2026-04-20 17:26 | 59.87894 | -1.29524 | 43 ft | 8 kts | 234° |
| 2026-04-20 17:26 | 59.87855 | -1.29600 | 40 ft | 12 kts | 141° |
| 2026-04-20 17:27 | 59.87908 | -1.29465 | 40 ft | 17 kts | 64° |
| 2026-04-20 17:27 | 59.87853 | -1.29326 | 41 ft | 14 kts | 139° |
| 2026-04-20 17:27 | 59.87759 | -1.29187 | 43 ft | 21 kts | 144° |
| 2026-04-20 17:27 | 59.87630 | -1.29000 | 43 ft | 23 kts | 133° |
| 2026-04-20 17:28 | 59.87677 | -1.28818 | 43 ft | 10 kts | 344° |
| 2026-04-20 17:28 | 59.87686 | -1.28844 | 43 ft | 0 kts | 284° |